createdAt,value
2018-07-17T00:00:43.982Z,98320.00
2018-07-17T00:03:12.379Z,98323.00
2018-07-17T00:05:40.787Z,98324.00
2018-07-17T00:08:09.196Z,98326.00
2018-07-17T00:10:37.608Z,98320.00
2018-07-17T00:13:06.015Z,98325.00
2018-07-17T00:15:34.462Z,98327.00
2018-07-17T00:18:02.874Z,98328.00
2018-07-17T00:20:31.323Z,98324.00
2018-07-17T00:22:59.756Z,98330.00
2018-07-17T00:25:28.172Z,98329.00
2018-07-17T00:27:56.581Z,98326.00
2018-07-17T00:30:24.981Z,98327.00
2018-07-17T00:32:53.483Z,98329.00
2018-07-17T00:35:21.922Z,98326.00
2018-07-17T00:37:50.309Z,98325.00
2018-07-17T00:40:18.726Z,98322.00
2018-07-17T00:42:47.269Z,98323.00
2018-07-17T00:45:15.742Z,98311.00
2018-07-17T00:47:44.277Z,98318.00
2018-07-17T00:50:12.689Z,98322.00
2018-07-17T00:52:41.125Z,98330.00
2018-07-17T00:55:09.531Z,98325.00
2018-07-17T00:57:37.942Z,98327.00
2018-07-17T01:00:06.398Z,98316.00
2018-07-17T01:02:40.206Z,98318.00
2018-07-17T01:05:13.916Z,98317.00
2018-07-17T01:07:47.679Z,98316.00
2018-07-17T01:10:21.456Z,98317.00
2018-07-17T01:12:49.075Z,98322.00
2018-07-17T01:15:24.694Z,98318.00
2018-07-17T01:17:53.116Z,98318.00
2018-07-17T01:20:21.550Z,98312.00
2018-07-17T01:22:49.970Z,98302.00
2018-07-17T01:25:18.379Z,98309.00
2018-07-17T01:27:46.781Z,98302.00
2018-07-17T01:30:15.190Z,98298.00
2018-07-17T01:32:43.595Z,98303.00
2018-07-17T01:35:12.051Z,98303.00
2018-07-17T01:37:41.002Z,98306.00
2018-07-17T01:40:09.414Z,98309.00
2018-07-17T01:42:37.833Z,98306.00
2018-07-17T01:45:06.281Z,98308.00
2018-07-17T01:47:34.708Z,98316.00
2018-07-17T01:50:03.128Z,98325.00
2018-07-17T01:52:31.531Z,98318.00
2018-07-17T01:54:59.947Z,98324.00
2018-07-17T01:57:28.355Z,98324.00
2018-07-17T01:59:56.787Z,98310.00
2018-07-17T02:02:25.194Z,98325.00
2018-07-17T02:04:53.733Z,98329.00
2018-07-17T02:07:22.110Z,98331.00
2018-07-17T02:09:50.516Z,98332.00
2018-07-17T02:12:18.917Z,98332.00
2018-07-17T02:14:47.385Z,98327.00
2018-07-17T02:17:15.813Z,98332.00
2018-07-17T02:19:44.208Z,98322.00
2018-07-17T02:22:12.622Z,98312.00
2018-07-17T02:24:41.034Z,98312.00
2018-07-17T02:27:09.456Z,98318.00
2018-07-17T02:29:37.871Z,98322.00
2018-07-17T02:32:06.475Z,98310.00
2018-07-17T02:34:34.952Z,98313.00
2018-07-17T02:37:03.366Z,98314.00
2018-07-17T02:39:31.774Z,98312.00
2018-07-17T02:42:00.197Z,98307.00
2018-07-17T02:44:28.664Z,98310.00
2018-07-17T02:46:57.066Z,98304.00
2018-07-17T02:49:25.597Z,98311.00
2018-07-17T02:51:54.035Z,98315.00
2018-07-17T02:54:22.454Z,98315.00
2018-07-17T02:56:50.862Z,98315.00
2018-07-17T02:59:19.311Z,98311.00
2018-07-17T03:01:47.701Z,98304.00
2018-07-17T03:04:16.098Z,98311.00
2018-07-17T03:06:44.526Z,98316.00
2018-07-17T03:09:12.923Z,98317.00
2018-07-17T03:11:41.319Z,98319.00
2018-07-17T03:14:09.720Z,98321.00
2018-07-17T03:16:38.126Z,98327.00
2018-07-17T03:19:06.532Z,98320.00
2018-07-17T03:21:34.945Z,98329.00
2018-07-17T03:24:03.364Z,98325.00
2018-07-17T03:26:31.774Z,98336.00
2018-07-17T03:28:59.953Z,98333.00
2018-07-17T03:31:28.465Z,98335.00
2018-07-17T03:33:57.059Z,98337.00
2018-07-17T03:36:25.481Z,98348.00
2018-07-17T03:38:53.925Z,98349.00
2018-07-17T03:41:22.481Z,98353.00
2018-07-17T03:43:50.975Z,98347.00
2018-07-17T03:46:19.466Z,98356.00
2018-07-17T03:48:47.914Z,98355.00
2018-07-17T03:51:16.377Z,98343.00
2018-07-17T03:53:44.777Z,98351.00
2018-07-17T03:56:13.173Z,98345.00
2018-07-17T03:58:41.590Z,98353.00
2018-07-17T04:01:10.145Z,98356.00
2018-07-17T04:03:38.541Z,98353.00
2018-07-17T04:06:06.937Z,98361.00
2018-07-17T04:08:35.499Z,98362.00
2018-07-17T04:11:03.914Z,98354.00
2018-07-17T04:13:32.372Z,98357.00
2018-07-17T04:16:00.976Z,98365.00
2018-07-17T04:18:29.701Z,98360.00
2018-07-17T04:20:58.152Z,98354.00
2018-07-17T04:23:26.620Z,98365.00
2018-07-17T04:25:55.043Z,98371.00
2018-07-17T04:28:23.448Z,98368.00
2018-07-17T04:30:52.051Z,98370.00
2018-07-17T04:33:20.739Z,98376.00
2018-07-17T04:35:49.316Z,98378.00
2018-07-17T04:38:17.752Z,98378.00
2018-07-17T04:40:45.937Z,98391.00
2018-07-17T04:43:14.446Z,98383.00
2018-07-17T04:45:42.921Z,98380.00
2018-07-17T04:48:11.425Z,98379.00
2018-07-17T04:50:39.974Z,98381.00
2018-07-17T04:53:08.456Z,98382.00
2018-07-17T04:55:36.877Z,98380.00
2018-07-17T04:58:05.225Z,98389.00
2018-07-17T05:00:33.714Z,98377.00
2018-07-17T05:03:02.234Z,98390.00
2018-07-17T05:05:30.912Z,98378.00
2018-07-17T05:07:59.357Z,98393.00
2018-07-17T05:10:27.814Z,98388.00
2018-07-17T05:12:56.305Z,98386.00
2018-07-17T05:15:24.851Z,98392.00
2018-07-17T05:17:59.595Z,98403.00
2018-07-17T05:20:28.036Z,98411.00
2018-07-17T05:22:56.495Z,98406.00
2018-07-17T05:25:24.884Z,98409.00
2018-07-17T05:27:53.450Z,98415.00
2018-07-17T05:30:21.868Z,98409.00
2018-07-17T05:32:50.313Z,98412.00
2018-07-17T05:35:18.814Z,98418.00
2018-07-17T05:37:47.190Z,98422.00
2018-07-17T05:40:15.664Z,98419.00
2018-07-17T05:42:44.088Z,98424.00
2018-07-17T05:45:12.507Z,98417.00
2018-07-17T05:47:42.585Z,98414.00
2018-07-17T05:50:12.105Z,98420.00
2018-07-17T05:52:40.746Z,98415.00
2018-07-17T05:55:09.171Z,98412.00
2018-07-17T05:57:37.302Z,98416.00
2018-07-17T06:00:06.660Z,98413.00
2018-07-17T06:02:35.106Z,98412.00
2018-07-17T06:05:03.612Z,98412.00
2018-07-17T06:07:32.028Z,98414.00
2018-07-17T06:10:00.545Z,98405.00
2018-07-17T06:12:28.999Z,98413.00
2018-07-17T06:14:57.468Z,98401.00
2018-07-17T06:17:25.891Z,98409.00
2018-07-17T06:19:54.415Z,98398.00
2018-07-17T06:22:22.879Z,98401.00
2018-07-17T06:24:51.325Z,98396.00
2018-07-17T06:27:19.733Z,98395.00
2018-07-17T06:29:48.143Z,98386.00
2018-07-17T06:32:16.548Z,98392.00
2018-07-17T06:34:44.969Z,98388.00
2018-07-17T06:37:13.371Z,98390.00
2018-07-17T06:39:41.782Z,98397.00
2018-07-17T06:42:10.197Z,98383.00
2018-07-17T06:44:38.686Z,98390.00
2018-07-17T06:47:07.019Z,98392.00
2018-07-17T06:49:35.419Z,98390.00
2018-07-17T06:52:03.834Z,98390.00
2018-07-17T06:54:32.244Z,98393.00
2018-07-17T06:57:00.684Z,98393.00
2018-07-17T06:59:29.138Z,98393.00
2018-07-17T07:01:57.565Z,98389.00
2018-07-17T07:04:26.008Z,98386.00
2018-07-17T07:06:54.422Z,98395.00
2018-07-17T07:09:22.846Z,98383.00
2018-07-17T07:11:51.321Z,98394.00
2018-07-17T07:14:19.757Z,98396.00
2018-07-17T07:16:48.199Z,98382.00
2018-07-17T07:19:16.615Z,98387.00
2018-07-17T07:21:45.063Z,98390.00
2018-07-17T07:24:13.482Z,98393.00
2018-07-17T07:26:41.944Z,98386.00
2018-07-17T07:29:10.358Z,98393.00
2018-07-17T07:31:38.754Z,98392.00
2018-07-17T07:34:07.161Z,98392.00
2018-07-17T07:36:35.640Z,98383.00
2018-07-17T07:39:05.780Z,98390.00
2018-07-17T07:41:34.202Z,98390.00
2018-07-17T07:44:02.606Z,98387.00
2018-07-17T07:46:31.031Z,98378.00
2018-07-17T07:48:59.498Z,98385.00
2018-07-17T07:51:27.900Z,98386.00
2018-07-17T07:53:56.319Z,98388.00
2018-07-17T07:56:24.792Z,98378.00
2018-07-17T07:58:53.626Z,98392.00
2018-07-17T08:01:22.039Z,98389.00
2018-07-17T08:03:50.529Z,98385.00
2018-07-17T08:06:18.887Z,98386.00
2018-07-17T08:08:47.339Z,98389.00
2018-07-17T08:11:15.749Z,98383.00
2018-07-17T08:13:44.154Z,98378.00
2018-07-17T08:16:12.566Z,98381.00
2018-07-17T08:18:40.966Z,98381.00
2018-07-17T08:21:09.528Z,98377.00
2018-07-17T08:23:37.920Z,98377.00
2018-07-17T08:26:06.332Z,98376.00
2018-07-17T08:28:34.755Z,98382.00
2018-07-17T08:31:03.227Z,98380.00
2018-07-17T08:33:31.639Z,98378.00
2018-07-17T08:36:00.079Z,98388.00
2018-07-17T08:38:28.476Z,98385.00
2018-07-17T08:40:56.875Z,98380.00
2018-07-17T08:43:25.328Z,98388.00
2018-07-17T08:45:53.706Z,98395.00
2018-07-17T08:48:22.111Z,98392.00
2018-07-17T08:50:50.514Z,98396.00
2018-07-17T08:53:18.915Z,98391.00
2018-07-17T08:55:47.336Z,98389.00
2018-07-17T08:58:15.784Z,98388.00
2018-07-17T09:00:44.193Z,98392.00
2018-07-17T09:03:12.600Z,98403.00
2018-07-17T09:05:40.761Z,98397.00
2018-07-17T09:08:09.172Z,98397.00
2018-07-17T09:10:37.578Z,98402.00
2018-07-17T09:13:05.994Z,98391.00
2018-07-17T09:15:34.400Z,98395.00
2018-07-17T09:18:02.850Z,98405.00
2018-07-17T09:20:31.283Z,98404.00
2018-07-17T09:22:59.723Z,98392.00
2018-07-17T09:25:28.236Z,98395.00
2018-07-17T09:27:56.907Z,98394.00
2018-07-17T09:30:27.696Z,98388.00
2018-07-17T09:32:56.138Z,98400.00
2018-07-17T09:35:24.534Z,98377.00
2018-07-17T09:37:52.944Z,98383.00
2018-07-17T09:40:21.348Z,98388.00
2018-07-17T09:42:49.806Z,98378.00
2018-07-17T09:45:18.218Z,98386.00
2018-07-17T09:47:46.631Z,98383.00
2018-07-17T09:50:15.056Z,98379.00
2018-07-17T09:52:43.455Z,98381.00
2018-07-17T09:55:11.853Z,98375.00
2018-07-17T09:57:40.261Z,98377.00
2018-07-17T10:00:10.809Z,98376.00
2018-07-17T10:02:39.207Z,98377.00
2018-07-17T10:05:07.635Z,98373.00
2018-07-17T10:07:36.054Z,98370.00
2018-07-17T10:10:04.458Z,98371.00
2018-07-17T10:12:32.866Z,98371.00
2018-07-17T10:15:01.319Z,98376.00
2018-07-17T10:17:29.764Z,98369.00
2018-07-17T10:19:58.229Z,98377.00
2018-07-17T10:22:26.661Z,98369.00
2018-07-17T10:24:55.107Z,98371.00
2018-07-17T10:27:23.526Z,98376.00
2018-07-17T10:29:51.958Z,98372.00
2018-07-17T10:32:20.475Z,98369.00
2018-07-17T10:34:48.894Z,98373.00
2018-07-17T10:37:17.297Z,98372.00
2018-07-17T10:39:45.429Z,98372.00
2018-07-17T10:42:13.884Z,98369.00
2018-07-17T10:44:42.299Z,98370.00
2018-07-17T10:47:10.741Z,98369.00
2018-07-17T10:49:39.154Z,98361.00
2018-07-17T10:52:07.738Z,98366.00
2018-07-17T10:54:36.165Z,98364.00
2018-07-17T10:57:04.584Z,98368.00
2018-07-17T10:59:32.988Z,98365.00
2018-07-17T11:02:01.459Z,98356.00
2018-07-17T11:04:30.728Z,98359.00
2018-07-17T11:06:59.730Z,98353.00
2018-07-17T11:09:28.174Z,98351.00
2018-07-17T11:11:56.590Z,98351.00
2018-07-17T11:14:24.999Z,98349.00
2018-07-17T11:16:53.399Z,98356.00
2018-07-17T11:19:21.815Z,98353.00
2018-07-17T11:21:50.219Z,98351.00
2018-07-17T11:24:18.701Z,98344.00
2018-07-17T11:26:47.167Z,98340.00
2018-07-17T11:29:15.561Z,98334.00
2018-07-17T11:31:43.960Z,98335.00
2018-07-17T11:34:12.368Z,98345.00
2018-07-17T11:36:40.852Z,98329.00
2018-07-17T11:39:10.251Z,98327.00
2018-07-17T11:41:38.691Z,98326.00
2018-07-17T11:44:06.831Z,98322.00
2018-07-17T11:46:35.257Z,98319.00
2018-07-17T11:49:03.673Z,98309.00
2018-07-17T11:51:32.083Z,98306.00
2018-07-17T11:54:00.521Z,98305.00
2018-07-17T11:56:28.650Z,98303.00
2018-07-17T11:58:57.099Z,98309.00
2018-07-17T12:01:25.503Z,98305.00
2018-07-17T12:03:53.931Z,98303.00
2018-07-17T12:06:22.355Z,98302.00
2018-07-17T12:08:50.796Z,98295.00
2018-07-17T12:11:19.199Z,98295.00
2018-07-17T12:13:47.592Z,98281.00
2018-07-17T12:16:15.995Z,98280.00
2018-07-17T12:18:44.432Z,98279.00
2018-07-17T12:21:12.874Z,98288.00
2018-07-17T12:23:41.300Z,98291.00
2018-07-17T12:26:09.718Z,98280.00
2018-07-17T12:28:38.142Z,98287.00
2018-07-17T12:31:06.683Z,98284.00
2018-07-17T12:33:35.782Z,98279.00
2018-07-17T12:36:04.310Z,98274.00
2018-07-17T12:38:32.717Z,98283.00
2018-07-17T12:41:01.138Z,98282.00
2018-07-17T12:43:29.595Z,98264.00
2018-07-17T12:45:58.037Z,98271.00
2018-07-17T12:48:26.449Z,98282.00
2018-07-17T12:50:54.991Z,98283.00
2018-07-17T12:53:23.414Z,98278.00
2018-07-17T12:55:51.827Z,98267.00
2018-07-17T12:58:20.332Z,98269.00
2018-07-17T13:00:48.754Z,98262.00
2018-07-17T13:03:17.192Z,98269.00
2018-07-17T13:05:45.337Z,98259.00
2018-07-17T13:08:13.815Z,98261.00
2018-07-17T13:10:42.363Z,98265.00
2018-07-17T13:13:10.771Z,98262.00
2018-07-17T13:15:39.309Z,98271.00
2018-07-17T13:18:07.955Z,98273.00
2018-07-17T13:20:36.481Z,98281.00
2018-07-17T13:23:04.977Z,98269.00
2018-07-17T13:25:33.411Z,98274.00
2018-07-17T13:28:02.099Z,98266.00
2018-07-17T13:30:30.668Z,98279.00
2018-07-17T13:32:59.203Z,98273.00
2018-07-17T13:35:27.838Z,98267.00
2018-07-17T13:37:56.309Z,98268.00
2018-07-17T13:40:24.754Z,98270.00
2018-07-17T13:42:53.462Z,98269.00
2018-07-17T13:45:22.669Z,98260.00
2018-07-17T13:47:52.693Z,98268.00
2018-07-17T13:50:21.760Z,98263.00
2018-07-17T13:52:50.325Z,98262.00
2018-07-17T13:55:19.030Z,98258.00
2018-07-17T13:57:47.576Z,98254.00
2018-07-17T14:00:16.012Z,98260.00
2018-07-17T14:02:44.705Z,98265.00
2018-07-17T14:05:13.315Z,98258.00
2018-07-17T14:07:41.792Z,98264.00
2018-07-17T14:10:10.220Z,98263.00
2018-07-17T14:12:38.679Z,98254.00
2018-07-17T14:15:07.118Z,98265.00
2018-07-17T14:17:35.606Z,98262.00
2018-07-17T14:20:04.105Z,98279.00
2018-07-17T14:22:32.537Z,98280.00
2018-07-17T14:25:00.967Z,98297.00
2018-07-17T14:27:29.443Z,98289.00
2018-07-17T14:29:58.857Z,98289.00
2018-07-17T14:32:27.277Z,98292.00
2018-07-17T14:34:55.828Z,98280.00
2018-07-17T14:37:24.191Z,98272.00
2018-07-17T14:39:52.735Z,98281.00
2018-07-17T14:42:21.190Z,98286.00
2018-07-17T14:44:49.598Z,98284.00
2018-07-17T14:47:18.001Z,98285.00
2018-07-17T14:49:46.421Z,98280.00
2018-07-17T14:52:14.874Z,98269.00
2018-07-17T14:54:43.369Z,98267.00
2018-07-17T14:57:11.822Z,98272.00
2018-07-17T14:59:40.304Z,98275.00
2018-07-17T15:02:08.720Z,98274.00
2018-07-17T15:04:37.128Z,98275.00
2018-07-17T15:07:05.596Z,98272.00
2018-07-17T15:09:34.022Z,98271.00
2018-07-17T15:12:03.329Z,98274.00
2018-07-17T15:14:31.876Z,98278.00
2018-07-17T15:17:00.376Z,98272.00
2018-07-17T15:19:29.941Z,98274.00
2018-07-17T15:21:58.346Z,98264.00
2018-07-17T15:24:27.042Z,98263.00
2018-07-17T15:26:55.535Z,98267.00
2018-07-17T15:29:24.036Z,98266.00
2018-07-17T15:31:52.751Z,98264.00
2018-07-17T15:34:21.306Z,98257.00
2018-07-17T15:36:50.845Z,98251.00
2018-07-17T15:39:19.250Z,98248.00
2018-07-17T15:41:47.845Z,98245.00
2018-07-17T15:44:16.349Z,98245.00
2018-07-17T15:46:45.775Z,98249.00
2018-07-17T15:49:14.176Z,98245.00
2018-07-17T15:51:42.682Z,98242.00
2018-07-17T15:54:11.183Z,98244.00
2018-07-17T15:56:39.560Z,98242.00
2018-07-17T15:59:08.501Z,98239.00
2018-07-17T16:01:37.192Z,98233.00
2018-07-17T16:04:06.144Z,98244.00
2018-07-17T16:06:34.816Z,98245.00
2018-07-17T16:09:04.438Z,98239.00
2018-07-17T16:11:33.858Z,98242.00
2018-07-17T16:14:02.759Z,98247.00
2018-07-17T16:16:30.959Z,98251.00
2018-07-17T16:18:59.410Z,98255.00
2018-07-17T16:21:27.734Z,98257.00
2018-07-17T16:23:56.253Z,98263.00
2018-07-17T16:26:24.766Z,98263.00
2018-07-17T16:28:53.313Z,98262.00
2018-07-17T16:31:21.724Z,98269.00
2018-07-17T16:33:50.349Z,98271.00
2018-07-17T16:36:18.814Z,98271.00
2018-07-17T16:38:47.256Z,98266.00
2018-07-17T16:41:15.899Z,98261.00
2018-07-17T16:43:44.343Z,98267.00
2018-07-17T16:46:12.786Z,98265.00
2018-07-17T16:48:41.225Z,98270.00
2018-07-17T16:51:09.875Z,98267.00
2018-07-17T16:53:38.335Z,98267.00
2018-07-17T16:56:06.901Z,98261.00
2018-07-17T16:58:35.451Z,98259.00
2018-07-17T17:01:03.867Z,98259.00
2018-07-17T17:03:32.525Z,98260.00
2018-07-17T17:06:01.158Z,98265.00
2018-07-17T17:08:29.664Z,98262.00
2018-07-17T17:10:58.270Z,98267.00
2018-07-17T17:13:26.765Z,98265.00
2018-07-17T17:15:55.376Z,98266.00
2018-07-17T17:18:23.796Z,98258.00
2018-07-17T17:20:52.027Z,98272.00
2018-07-17T17:23:20.729Z,98267.00
2018-07-17T17:25:49.264Z,98259.00
2018-07-17T17:28:17.783Z,98263.00
2018-07-17T17:30:48.001Z,98267.00
2018-07-17T17:33:16.995Z,98266.00
2018-07-17T17:35:45.585Z,98275.00
2018-07-17T17:38:14.130Z,98271.00
2018-07-17T17:40:42.789Z,98271.00
2018-07-17T17:43:11.442Z,98275.00
2018-07-17T17:45:41.499Z,98273.00
2018-07-17T17:48:09.995Z,98274.00
2018-07-17T17:50:38.534Z,98281.00
2018-07-17T17:53:07.024Z,98281.00
2018-07-17T17:55:36.552Z,98281.00
2018-07-17T17:58:06.001Z,98285.00
2018-07-17T18:00:35.502Z,98291.00
2018-07-17T18:03:04.808Z,98294.00
2018-07-17T18:05:34.123Z,98297.00
2018-07-17T18:08:03.581Z,98294.00
2018-07-17T18:10:32.743Z,98296.00
2018-07-17T18:13:02.656Z,98295.00
2018-07-17T18:15:31.955Z,98300.00
2018-07-17T18:18:01.337Z,98303.00
2018-07-17T18:20:29.848Z,98304.00
2018-07-17T18:22:59.136Z,98299.00
2018-07-17T18:25:28.383Z,98303.00
2018-07-17T18:27:57.350Z,98319.00
2018-07-17T18:30:26.696Z,98309.00
2018-07-17T18:32:56.290Z,98318.00
2018-07-17T18:35:25.494Z,98317.00
2018-07-17T18:37:54.670Z,98314.00
2018-07-17T18:40:23.891Z,98325.00
2018-07-17T18:42:53.535Z,98318.00
2018-07-17T18:45:22.772Z,98329.00
2018-07-17T18:47:51.991Z,98334.00
2018-07-17T18:50:21.202Z,98331.00
2018-07-17T18:52:51.190Z,98335.00
2018-07-17T18:55:20.235Z,98337.00
2018-07-17T18:57:49.601Z,98337.00
2018-07-17T19:00:23.454Z,98335.00
2018-07-17T19:02:52.758Z,98350.00
2018-07-17T19:05:22.039Z,98344.00
2018-07-17T19:07:51.175Z,98346.00
2018-07-17T19:10:20.594Z,98354.00
2018-07-17T19:12:49.932Z,98356.00
2018-07-17T19:15:19.140Z,98361.00
2018-07-17T19:17:48.412Z,98349.00
2018-07-17T19:20:19.315Z,98356.00
2018-07-17T19:22:49.363Z,98360.00
2018-07-17T19:25:19.705Z,98374.00
2018-07-17T19:27:49.592Z,98366.00
2018-07-17T19:30:20.259Z,98371.00
2018-07-17T19:32:50.219Z,98378.00
2018-07-17T19:35:19.396Z,98383.00
2018-07-17T19:37:48.593Z,98384.00
2018-07-17T19:40:17.780Z,98378.00
2018-07-17T19:42:47.861Z,98387.00
2018-07-17T19:45:17.542Z,98383.00
2018-07-17T19:47:46.050Z,98391.00
2018-07-17T19:50:14.588Z,98387.00
2018-07-17T19:52:43.305Z,98390.00
2018-07-17T19:55:12.474Z,98395.00
2018-07-17T19:57:40.944Z,98397.00
2018-07-17T20:00:09.112Z,98400.00
2018-07-17T20:02:37.719Z,98406.00
2018-07-17T20:05:06.132Z,98405.00
2018-07-17T20:07:34.546Z,98399.00
2018-07-17T20:10:02.988Z,98399.00
2018-07-17T20:12:31.609Z,98409.00
2018-07-17T20:15:00.058Z,98404.00
2018-07-17T20:17:28.561Z,98405.00
2018-07-17T20:19:57.096Z,98410.00
2018-07-17T20:22:25.582Z,98408.00
2018-07-17T20:24:54.131Z,98407.00
2018-07-17T20:27:22.612Z,98401.00
2018-07-17T20:29:51.023Z,98407.00
2018-07-17T20:32:19.474Z,98406.00
2018-07-17T20:34:48.108Z,98411.00
2018-07-17T20:37:16.546Z,98411.00
2018-07-17T20:39:45.237Z,98417.00
2018-07-17T20:42:13.728Z,98415.00
2018-07-17T20:44:42.146Z,98421.00
2018-07-17T20:47:10.685Z,98419.00
2018-07-17T20:49:39.097Z,98421.00
2018-07-17T20:52:07.537Z,98413.00
2018-07-17T20:54:36.111Z,98418.00
2018-07-17T20:57:04.573Z,98417.00
2018-07-17T20:59:33.008Z,98409.00
2018-07-17T21:02:01.441Z,98415.00
2018-07-17T21:04:29.924Z,98424.00
2018-07-17T21:06:58.364Z,98428.00
2018-07-17T21:09:26.889Z,98431.00
2018-07-17T21:11:55.432Z,98427.00
2018-07-17T21:14:23.940Z,98430.00
2018-07-17T21:16:52.356Z,98426.00
2018-07-17T21:19:20.533Z,98431.00
2018-07-17T21:21:48.980Z,98436.00
2018-07-17T21:24:17.446Z,98431.00
2018-07-17T21:26:45.897Z,98440.00
2018-07-17T21:29:14.349Z,98439.00
2018-07-17T21:31:42.808Z,98442.00
2018-07-17T21:34:11.253Z,98437.00
2018-07-17T21:36:39.711Z,98444.00
2018-07-17T21:39:09.600Z,98452.00
2018-07-17T21:41:38.050Z,98445.00
2018-07-17T21:44:06.475Z,98454.00
2018-07-17T21:46:34.879Z,98447.00
2018-07-17T21:49:03.293Z,98457.00
2018-07-17T21:51:31.776Z,98455.00
2018-07-17T21:54:00.209Z,98451.00
2018-07-17T21:56:28.629Z,98449.00
2018-07-17T21:58:57.110Z,98450.00
2018-07-17T22:01:25.529Z,98451.00
2018-07-17T22:03:53.984Z,98456.00
2018-07-17T22:06:22.436Z,98453.00
2018-07-17T22:08:50.838Z,98453.00
2018-07-17T22:11:19.329Z,98458.00
2018-07-17T22:13:47.741Z,98460.00
2018-07-17T22:16:16.185Z,98455.00
2018-07-17T22:18:44.590Z,98459.00
2018-07-17T22:21:13.044Z,98461.00
2018-07-17T22:23:41.490Z,98463.00
2018-07-17T22:26:09.915Z,98461.00
2018-07-17T22:28:38.384Z,98454.00
2018-07-17T22:31:06.880Z,98462.00
2018-07-17T22:33:35.290Z,98463.00
2018-07-17T22:36:03.701Z,98455.00
2018-07-17T22:38:32.152Z,98457.00
2018-07-17T22:41:00.613Z,98466.00
2018-07-17T22:43:29.056Z,98456.00
2018-07-17T22:45:57.493Z,98460.00
2018-07-17T22:48:25.933Z,98457.00
2018-07-17T22:50:54.352Z,98459.00
2018-07-17T22:53:22.824Z,98465.00
2018-07-17T22:55:51.356Z,98462.00
2018-07-17T22:58:19.780Z,98470.00
2018-07-17T23:00:48.190Z,98476.00
2018-07-17T23:03:16.617Z,98477.00
2018-07-17T23:05:45.011Z,98484.00
2018-07-17T23:08:13.498Z,98473.00
2018-07-17T23:10:41.937Z,98480.00
2018-07-17T23:13:10.400Z,98480.00
2018-07-17T23:15:38.880Z,98477.00
2018-07-17T23:18:07.343Z,98479.00
2018-07-17T23:20:35.763Z,98488.00
2018-07-17T23:23:04.205Z,98486.00
2018-07-17T23:25:33.288Z,98486.00
2018-07-17T23:28:02.292Z,98493.00
2018-07-17T23:30:30.728Z,98483.00
2018-07-17T23:32:59.166Z,98485.00
2018-07-17T23:35:27.572Z,98495.00
2018-07-17T23:37:56.015Z,98482.00
2018-07-17T23:40:24.443Z,98484.00
2018-07-17T23:42:52.952Z,98486.00
2018-07-17T23:45:21.390Z,98488.00
2018-07-17T23:47:49.867Z,98482.00
2018-07-17T23:50:18.314Z,98486.00
2018-07-17T23:52:46.720Z,98492.00
2018-07-17T23:55:15.178Z,98489.00
2018-07-17T23:57:43.588Z,98489.00
